Emeigh, Pennsylvania
Current Conditions -  °F | °C
As of 12:15 PM on Thursday 18 Dec 2014 (Local Time) from KIDI Reporting Station
Overcast Overcast  
Wind Chill: 20°   Ceiling: 2000
Heat Index: 28°   Visibility: 9mi
Dew Point: 25°   Wind: 9mph
Humidity: 86%   Direction: 280°W
Pressure: 30.16"   Gusts: NA
Location:  40.69°N, 78.79°W
Report Text: KIDI 181715Z AUTO 28008KT 9SM OVC020 M02/M04 A3016 RMK A01
Loading
Personal Weather Stations






























Interactive Weather Map New forecast layout! Learn more

10-Day Weather Forecast

Advertisements
Track Severe Weather on mobile